sensor_id;sensor_type;location;lat;lon;timestamp;pressure;altitude;pressure_sealevel;temperature;humidity
76434;BME280;65265;53.200;6.080;2023-02-26T00:04:13;102062.00;;;2.13;63.84
76434;BME280;65265;53.200;6.080;2023-02-26T00:09:05;102069.56;;;2.13;64.72
76434;BME280;65265;53.200;6.080;2023-02-26T00:13:57;102072.69;;;2.11;64.98
76434;BME280;65265;53.200;6.080;2023-02-26T00:18:50;102066.78;;;2.10;65.34
76434;BME280;65265;53.200;6.080;2023-02-26T00:23:42;102076.88;;;2.10;62.66
76434;BME280;65265;53.200;6.080;2023-02-26T00:28:34;102072.00;;;2.03;64.34
76434;BME280;65265;53.200;6.080;2023-02-26T00:33:26;102075.88;;;2.00;63.63
76434;BME280;65265;53.200;6.080;2023-02-26T00:38:19;102077.78;;;2.02;63.76
76434;BME280;65265;53.200;6.080;2023-02-26T00:43:14;102076.13;;;2.11;61.23
76434;BME280;65265;53.200;6.080;2023-02-26T00:48:18;102091.72;;;2.07;63.28
76434;BME280;65265;53.200;6.080;2023-02-26T00:53:19;102099.16;;;2.06;63.42
76434;BME280;65265;53.200;6.080;2023-02-26T00:58:12;102113.53;;;2.07;63.26
76434;BME280;65265;53.200;6.080;2023-02-26T01:03:04;102108.66;;;2.08;64.63
76434;BME280;65265;53.200;6.080;2023-02-26T01:08:01;102116.66;;;2.04;64.56
76434;BME280;65265;53.200;6.080;2023-02-26T01:12:55;102123.38;;;1.95;63.57
76434;BME280;65265;53.200;6.080;2023-02-26T01:17:52;102127.69;;;1.96;63.68
76434;BME280;65265;53.200;6.080;2023-02-26T01:22:51;102134.19;;;1.94;62.79
76434;BME280;65265;53.200;6.080;2023-02-26T01:27:43;102137.19;;;1.90;63.70
76434;BME280;65265;53.200;6.080;2023-02-26T01:32:43;102140.50;;;1.81;62.38
76434;BME280;65265;53.200;6.080;2023-02-26T01:37:49;102134.53;;;1.80;63.31
76434;BME280;65265;53.200;6.080;2023-02-26T01:42:45;102135.72;;;1.84;64.30
76434;BME280;65265;53.200;6.080;2023-02-26T01:47:48;102141.69;;;1.84;63.97
76434;BME280;65265;53.200;6.080;2023-02-26T01:53:21;102152.66;;;1.76;64.50
76434;BME280;65265;53.200;6.080;2023-02-26T01:58:13;102156.81;;;1.76;64.69
76434;BME280;65265;53.200;6.080;2023-02-26T02:03:12;102162.75;;;1.76;65.48
76434;BME280;65265;53.200;6.080;2023-02-26T02:08:04;102173.88;;;1.78;65.91
76434;BME280;65265;53.200;6.080;2023-02-26T02:13:02;102174.91;;;1.80;66.84
76434;BME280;65265;53.200;6.080;2023-02-26T02:18:00;102182.03;;;1.84;66.49
76434;BME280;65265;53.200;6.080;2023-02-26T02:23:07;102192.69;;;1.82;67.29
76434;BME280;65265;53.200;6.080;2023-02-26T02:28:03;102197.47;;;1.79;67.05
76434;BME280;65265;53.200;6.080;2023-02-26T02:33:09;102195.69;;;1.69;65.87
76434;BME280;65265;53.200;6.080;2023-02-26T02:38:06;102193.63;;;1.57;68.02
76434;BME280;65265;53.200;6.080;2023-02-26T02:43:01;102214.97;;;1.60;66.21
76434;BME280;65265;53.200;6.080;2023-02-26T02:48:00;102220.91;;;1.52;67.02
76434;BME280;65265;53.200;6.080;2023-02-26T02:52:56;102214.81;;;1.42;65.87
76434;BME280;65265;53.200;6.080;2023-02-26T02:57:52;102220.91;;;1.35;66.19
76434;BME280;65265;53.200;6.080;2023-02-26T03:02:49;102222.69;;;1.28;65.98
76434;BME280;65265;53.200;6.080;2023-02-26T03:07:46;102226.81;;;1.27;64.96
76434;BME280;65265;53.200;6.080;2023-02-26T03:12:38;102236.94;;;1.36;64.74
76434;BME280;65265;53.200;6.080;2023-02-26T03:17:34;102241.81;;;1.43;62.79
76434;BME280;65265;53.200;6.080;2023-02-26T03:22:31;102245.06;;;1.42;64.63
76434;BME280;65265;53.200;6.080;2023-02-26T03:27:31;102246.09;;;1.44;64.10
76434;BME280;65265;53.200;6.080;2023-02-26T03:32:27;102251.59;;;1.48;64.27
76434;BME280;65265;53.200;6.080;2023-02-26T03:37:23;102264.66;;;1.53;63.79
76434;BME280;65265;53.200;6.080;2023-02-26T03:42:20;102276.81;;;1.65;62.71
76434;BME280;65265;53.200;6.080;2023-02-26T03:47:14;102280.97;;;1.73;63.05
76434;BME280;65265;53.200;6.080;2023-02-26T03:52:06;102284.38;;;1.74;64.15
76434;BME280;65265;53.200;6.080;2023-02-26T03:56:58;102295.19;;;1.73;64.55
76434;BME280;65265;53.200;6.080;2023-02-26T04:01:54;102304.25;;;1.71;65.05
76434;BME280;65265;53.200;6.080;2023-02-26T04:06:50;102311.66;;;1.78;63.99
76434;BME280;65265;53.200;6.080;2023-02-26T04:11:42;102317.72;;;1.71;64.81
76434;BME280;65265;53.200;6.080;2023-02-26T04:16:35;102323.84;;;1.73;65.08
76434;BME280;65265;53.200;6.080;2023-02-26T04:21:27;102327.69;;;1.70;65.65
76434;BME280;65265;53.200;6.080;2023-02-26T04:26:20;102336.59;;;1.66;63.77
76434;BME280;65265;53.200;6.080;2023-02-26T04:31:11;102340.13;;;1.60;65.55
76434;BME280;65265;53.200;6.080;2023-02-26T04:36:03;102341.91;;;1.52;67.02
76434;BME280;65265;53.200;6.080;2023-02-26T04:40:55;102349.88;;;1.48;66.13
76434;BME280;65265;53.200;6.080;2023-02-26T04:45:48;102349.13;;;1.41;66.74
76434;BME280;65265;53.200;6.080;2023-02-26T04:50:40;102358.06;;;1.46;66.33
76434;BME280;65265;53.200;6.080;2023-02-26T04:55:32;102369.44;;;1.34;66.36
76434;BME280;65265;53.200;6.080;2023-02-26T05:00:23;102373.88;;;1.28;67.87
76434;BME280;65265;53.200;6.080;2023-02-26T05:05:17;102385.56;;;1.27;67.67
76434;BME280;65265;53.200;6.080;2023-02-26T05:10:10;102393.66;;;1.16;67.92
76434;BME280;65265;53.200;6.080;2023-02-26T05:15:02;102395.84;;;1.05;69.11
76434;BME280;65265;53.200;6.080;2023-02-26T05:19:53;102393.91;;;1.02;68.35
76434;BME280;65265;53.200;6.080;2023-02-26T05:24:46;102404.28;;;1.05;67.76
76434;BME280;65265;53.200;6.080;2023-02-26T05:29:38;102405.16;;;0.97;69.31
76434;BME280;65265;53.200;6.080;2023-02-26T05:34:31;102419.03;;;0.85;69.31
76434;BME280;65265;53.200;6.080;2023-02-26T05:39:22;102419.44;;;0.81;69.74
76434;BME280;65265;53.200;6.080;2023-02-26T05:44:15;102418.81;;;0.75;70.58
76434;BME280;65265;53.200;6.080;2023-02-26T05:49:07;102425.00;;;0.70;70.26
76434;BME280;65265;53.200;6.080;2023-02-26T05:53:58;102432.41;;;0.69;70.52
76434;BME280;65265;53.200;6.080;2023-02-26T05:58:50;102433.53;;;0.64;69.89
76434;BME280;65265;53.200;6.080;2023-02-26T06:03:42;102442.56;;;0.62;70.16
76434;BME280;65265;53.200;6.080;2023-02-26T06:08:34;102444.91;;;0.60;69.96
76434;BME280;65265;53.200;6.080;2023-02-26T06:13:25;102459.44;;;0.63;71.00
76434;BME280;65265;53.200;6.080;2023-02-26T06:18:17;102465.03;;;0.60;70.04
76434;BME280;65265;53.200;6.080;2023-02-26T06:23:10;102469.75;;;0.57;71.60
76434;BME280;65265;53.200;6.080;2023-02-26T06:28:04;102467.97;;;0.56;70.88
76434;BME280;65265;53.200;6.080;2023-02-26T06:32:56;102474.81;;;0.57;71.18
76434;BME280;65265;53.200;6.080;2023-02-26T06:37:47;102477.06;;;0.63;71.34
76434;BME280;65265;53.200;6.080;2023-02-26T06:42:40;102494.44;;;0.68;71.67
76434;BME280;65265;53.200;6.080;2023-02-26T06:47:32;102500.94;;;0.66;72.71
76434;BME280;65265;53.200;6.080;2023-02-26T06:52:23;102510.69;;;0.63;71.47
76434;BME280;65265;53.200;6.080;2023-02-26T06:57:15;102518.56;;;0.66;72.65
76434;BME280;65265;53.200;6.080;2023-02-26T07:02:14;102527.97;;;0.60;73.63
76434;BME280;65265;53.200;6.080;2023-02-26T07:07:06;102538.69;;;0.51;74.33
76434;BME280;65265;53.200;6.080;2023-02-26T07:11:58;102536.34;;;0.52;73.59
76434;BME280;65265;53.200;6.080;2023-02-26T07:16:49;102537.16;;;0.44;74.24
76434;BME280;65265;53.200;6.080;2023-02-26T07:21:42;102549.25;;;0.40;74.27
76434;BME280;65265;53.200;6.080;2023-02-26T07:26:33;102552.94;;;0.50;73.38
76434;BME280;65265;53.200;6.080;2023-02-26T07:31:24;102555.66;;;0.60;73.95
76434;BME280;65265;53.200;6.080;2023-02-26T07:36:17;102566.38;;;0.66;73.49
76434;BME280;65265;53.200;6.080;2023-02-26T07:41:10;102561.09;;;0.72;72.82
76434;BME280;65265;53.200;6.080;2023-02-26T07:46:01;102567.97;;;0.81;72.91
76434;BME280;65265;53.200;6.080;2023-02-26T07:50:53;102571.47;;;0.90;73.25
76434;BME280;65265;53.200;6.080;2023-02-26T07:55:45;102568.50;;;1.10;72.82
76434;BME280;65265;53.200;6.080;2023-02-26T08:00:37;102579.75;;;1.29;71.55
76434;BME280;65265;53.200;6.080;2023-02-26T08:05:29;102586.28;;;1.59;70.67
76434;BME280;65265;53.200;6.080;2023-02-26T08:10:21;102592.69;;;1.88;69.40
76434;BME280;65265;53.200;6.080;2023-02-26T08:15:12;102598.69;;;2.14;68.81
76434;BME280;65265;53.200;6.080;2023-02-26T08:20:06;102605.66;;;2.66;67.22
76434;BME280;65265;53.200;6.080;2023-02-26T08:24:58;102610.28;;;2.87;66.12
76434;BME280;65265;53.200;6.080;2023-02-26T08:29:50;102621.56;;;2.82;67.50
76434;BME280;65265;53.200;6.080;2023-02-26T08:34:41;102619.34;;;3.10;65.16
76434;BME280;65265;53.200;6.080;2023-02-26T08:39:35;102626.16;;;3.37;66.31
76434;BME280;65265;53.200;6.080;2023-02-26T08:44:28;102626.72;;;3.60;63.54
76434;BME280;65265;53.200;6.080;2023-02-26T08:49:19;102632.41;;;3.93;62.43
76434;BME280;65265;53.200;6.080;2023-02-26T08:54:10;102624.97;;;3.94;61.12
76434;BME280;65265;53.200;6.080;2023-02-26T08:59:04;102644.19;;;3.92;64.49
76434;BME280;65265;53.200;6.080;2023-02-26T09:03:55;102646.13;;;3.86;63.96
76434;BME280;65265;53.200;6.080;2023-02-26T09:08:47;102657.78;;;3.76;62.09
76434;BME280;65265;53.200;6.080;2023-02-26T09:13:39;102664.75;;;3.87;63.77
76434;BME280;65265;53.200;6.080;2023-02-26T09:18:32;102665.91;;;3.99;62.53
76434;BME280;65265;53.200;6.080;2023-02-26T09:23:24;102672.50;;;4.24;63.02
76434;BME280;65265;53.200;6.080;2023-02-26T09:28:15;102673.44;;;4.16;62.72
76434;BME280;65265;53.200;6.080;2023-02-26T09:33:07;102674.88;;;4.31;61.54
76434;BME280;65265;53.200;6.080;2023-02-26T09:38:00;102687.13;;;4.53;63.56
76434;BME280;65265;53.200;6.080;2023-02-26T09:43:05;102682.63;;;4.59;62.79
76434;BME280;65265;53.200;6.080;2023-02-26T09:48:03;102683.47;;;4.68;62.77
76434;BME280;65265;53.200;6.080;2023-02-26T09:53:01;102694.66;;;4.70;61.85
76434;BME280;65265;53.200;6.080;2023-02-26T09:57:57;102699.72;;;4.70;60.64
76434;BME280;65265;53.200;6.080;2023-02-26T10:02:57;102705.75;;;4.80;61.86
76434;BME280;65265;53.200;6.080;2023-02-26T10:07:56;102714.38;;;4.82;61.53
76434;BME280;65265;53.200;6.080;2023-02-26T10:12:51;102723.50;;;4.80;62.12
76434;BME280;65265;53.200;6.080;2023-02-26T10:17:52;102726.28;;;4.92;60.10
76434;BME280;65265;53.200;6.080;2023-02-26T10:22:53;102733.81;;;5.00;61.98
76434;BME280;65265;53.200;6.080;2023-02-26T10:27:54;102739.50;;;5.16;61.34
76434;BME280;65265;53.200;6.080;2023-02-26T10:32:54;102742.34;;;5.19;61.05
76434;BME280;65265;53.200;6.080;2023-02-26T10:37:51;102745.91;;;5.21;61.39
76434;BME280;65265;53.200;6.080;2023-02-26T10:42:46;102753.16;;;5.08;60.24
76434;BME280;65265;53.200;6.080;2023-02-26T10:47:48;102749.72;;;5.08;60.24
76434;BME280;65265;53.200;6.080;2023-02-26T10:52:44;102754.34;;;5.12;61.10
76434;BME280;65265;53.200;6.080;2023-02-26T10:57:41;102761.34;;;4.87;61.63
76434;BME280;65265;53.200;6.080;2023-02-26T11:02:36;102754.44;;;4.59;60.53
76434;BME280;65265;53.200;6.080;2023-02-26T11:07:30;102769.97;;;4.89;62.16
76434;BME280;65265;53.200;6.080;2023-02-26T11:12:22;102768.28;;;4.98;60.71
76434;BME280;65265;53.200;6.080;2023-02-26T11:17:16;102774.56;;;5.20;61.39
76434;BME280;65265;53.200;6.080;2023-02-26T11:22:11;102783.38;;;5.15;62.20
76434;BME280;65265;53.200;6.080;2023-02-26T11:27:10;102788.19;;;4.85;61.38
76434;BME280;65265;53.200;6.080;2023-02-26T11:32:03;102790.94;;;4.70;62.86
76434;BME280;65265;53.200;6.080;2023-02-26T11:36:57;102787.38;;;4.68;61.79
76434;BME280;65265;53.200;6.080;2023-02-26T11:41:52;102797.03;;;5.07;62.40
76434;BME280;65265;53.200;6.080;2023-02-26T11:46:49;102786.88;;;5.07;60.23
76434;BME280;65265;53.200;6.080;2023-02-26T11:51:44;102789.59;;;4.73;62.43
76434;BME280;65265;53.200;6.080;2023-02-26T11:56:38;102791.84;;;4.97;59.81
76434;BME280;65265;53.200;6.080;2023-02-26T12:01:31;102783.38;;;5.15;60.27
76434;BME280;65265;53.200;6.080;2023-02-26T12:06:25;102788.06;;;5.11;61.08
76434;BME280;65265;53.200;6.080;2023-02-26T12:11:33;102783.81;;;5.20;62.44
76434;BME280;65265;53.200;6.080;2023-02-26T12:16:30;102794.56;;;4.90;62.17
76434;BME280;65265;53.200;6.080;2023-02-26T12:21:53;102800.38;;;4.63;61.84
76434;BME280;65265;53.200;6.080;2023-02-26T12:26:51;102788.84;;;5.01;61.38
76434;BME280;65265;53.200;6.080;2023-02-26T12:32:09;102778.78;;;5.11;60.54
76434;BME280;65265;53.200;6.080;2023-02-26T12:37:17;102789.72;;;5.29;59.12
76434;BME280;65265;53.200;6.080;2023-02-26T12:42:19;102793.78;;;5.64;60.21
76434;BME280;65265;53.200;6.080;2023-02-26T12:47:28;102792.47;;;6.14;59.66
76434;BME280;65265;53.200;6.080;2023-02-26T12:52:51;102796.72;;;5.95;57.29
76434;BME280;65265;53.200;6.080;2023-02-26T12:57:52;102801.22;;;5.52;59.38
76434;BME280;65265;53.200;6.080;2023-02-26T13:03:09;102797.66;;;5.50;61.27
76434;BME280;65265;53.200;6.080;2023-02-26T13:08:11;102801.09;;;5.24;61.00
76434;BME280;65265;53.200;6.080;2023-02-26T13:13:19;102792.56;;;5.50;59.91
76434;BME280;65265;53.200;6.080;2023-02-26T13:18:23;102802.84;;;5.70;58.77
76434;BME280;65265;53.200;6.080;2023-02-26T13:23:22;102797.31;;;5.74;60.00
76434;BME280;65265;53.200;6.080;2023-02-26T13:28:27;102788.91;;;6.12;59.17
76434;BME280;65265;53.200;6.080;2023-02-26T13:33:27;102798.78;;;5.81;58.22
76434;BME280;65265;53.200;6.080;2023-02-26T13:38:27;102797.91;;;5.72;56.66
76434;BME280;65265;53.200;6.080;2023-02-26T13:43:38;102793.13;;;5.93;57.56
76434;BME280;65265;53.200;6.080;2023-02-26T13:48:39;102798.81;;;6.09;58.72
76434;BME280;65265;53.200;6.080;2023-02-26T13:53:45;102798.53;;;5.88;59.06
76434;BME280;65265;53.200;6.080;2023-02-26T13:58:40;102804.13;;;5.84;54.99
76434;BME280;65265;53.200;6.080;2023-02-26T14:03:33;102795.03;;;5.96;55.93
76434;BME280;65265;53.200;6.080;2023-02-26T14:08:46;102798.00;;;6.00;56.01
76434;BME280;65265;53.200;6.080;2023-02-26T14:13:39;102803.19;;;5.46;58.17
76434;BME280;65265;53.200;6.080;2023-02-26T14:18:35;102798.94;;;5.10;58.19
76434;BME280;65265;53.200;6.080;2023-02-26T14:23:36;102809.66;;;5.16;59.54
76434;BME280;65265;53.200;6.080;2023-02-26T14:28:41;102797.50;;;5.49;56.55
76434;BME280;65265;53.200;6.080;2023-02-26T14:33:39;102797.69;;;5.60;59.51
76434;BME280;65265;53.200;6.080;2023-02-26T14:38:33;102804.69;;;5.44;58.67
76434;BME280;65265;53.200;6.080;2023-02-26T14:43:32;102797.00;;;5.80;60.16
76434;BME280;65265;53.200;6.080;2023-02-26T14:48:27;102805.94;;;5.76;58.96
76434;BME280;65265;53.200;6.080;2023-02-26T14:53:52;102809.00;;;5.27;59.17
76434;BME280;65265;53.200;6.080;2023-02-26T14:58:59;102803.84;;;5.35;59.97
76434;BME280;65265;53.200;6.080;2023-02-26T15:04:10;102798.31;;;5.76;59.03
76434;BME280;65265;53.200;6.080;2023-02-26T15:09:12;102812.38;;;5.54;58.33
76434;BME280;65265;53.200;6.080;2023-02-26T15:14:36;102807.72;;;5.40;56.55
76434;BME280;65265;53.200;6.080;2023-02-26T15:19:44;102813.06;;;5.43;57.18
76434;BME280;65265;53.200;6.080;2023-02-26T15:24:38;102814.22;;;5.28;57.71
76434;BME280;65265;53.200;6.080;2023-02-26T15:29:32;102816.34;;;5.15;57.73
76434;BME280;65265;53.200;6.080;2023-02-26T15:34:25;102813.25;;;5.09;58.28
76434;BME280;65265;53.200;6.080;2023-02-26T15:39:22;102821.56;;;5.17;59.58
76434;BME280;65265;53.200;6.080;2023-02-26T15:44:17;102809.41;;;5.04;60.16
76434;BME280;65265;53.200;6.080;2023-02-26T15:49:13;102815.53;;;5.06;60.50
76434;BME280;65265;53.200;6.080;2023-02-26T15:54:11;102818.81;;;5.05;61.51
76434;BME280;65265;53.200;6.080;2023-02-26T15:59:11;102817.31;;;5.07;61.43
76434;BME280;65265;53.200;6.080;2023-02-26T16:04:11;102822.06;;;5.13;62.06
76434;BME280;65265;53.200;6.080;2023-02-26T16:09:04;102815.97;;;5.02;61.80
76434;BME280;65265;53.200;6.080;2023-02-26T16:13:56;102827.44;;;5.07;62.38
76434;BME280;65265;53.200;6.080;2023-02-26T16:18:50;102831.00;;;5.09;63.25
76434;BME280;65265;53.200;6.080;2023-02-26T16:23:45;102824.53;;;4.94;63.65
76434;BME280;65265;53.200;6.080;2023-02-26T16:28:42;102834.06;;;4.62;64.57
76434;BME280;65265;53.200;6.080;2023-02-26T16:33:36;102838.53;;;4.56;66.28
76434;BME280;65265;53.200;6.080;2023-02-26T16:38:31;102843.91;;;4.50;64.11
76434;BME280;65265;53.200;6.080;2023-02-26T16:43:33;102840.69;;;4.34;63.78
76434;BME280;65265;53.200;6.080;2023-02-26T16:48:27;102859.44;;;4.19;63.43
76434;BME280;65265;53.200;6.080;2023-02-26T16:53:20;102863.19;;;4.06;63.14
76434;BME280;65265;53.200;6.080;2023-02-26T16:58:15;102870.94;;;3.99;64.70
76434;BME280;65265;53.200;6.080;2023-02-26T17:03:08;102864.69;;;3.87;63.78
76434;BME280;65265;53.200;6.080;2023-02-26T17:08:06;102876.13;;;3.75;65.23
76434;BME280;65265;53.200;6.080;2023-02-26T17:13:09;102876.84;;;3.65;64.97
76434;BME280;65265;53.200;6.080;2023-02-26T17:18:04;102883.25;;;3.62;64.63
76434;BME280;65265;53.200;6.080;2023-02-26T17:22:57;102886.19;;;3.49;66.31
76434;BME280;65265;53.200;6.080;2023-02-26T17:27:48;102884.22;;;3.30;67.67
76434;BME280;65265;53.200;6.080;2023-02-26T17:32:40;102886.13;;;3.24;67.76
76434;BME280;65265;53.200;6.080;2023-02-26T17:37:34;102888.03;;;3.18;67.67
76434;BME280;65265;53.200;6.080;2023-02-26T17:42:26;102886.09;;;3.15;68.90
76434;BME280;65265;53.200;6.080;2023-02-26T17:47:19;102891.53;;;3.03;69.13
76434;BME280;65265;53.200;6.080;2023-02-26T17:52:12;102895.25;;;2.98;69.28
76434;BME280;65265;53.200;6.080;2023-02-26T17:57:05;102899.34;;;2.89;69.87
76434;BME280;65265;53.200;6.080;2023-02-26T18:01:57;102895.75;;;2.78;70.27
76434;BME280;65265;53.200;6.080;2023-02-26T18:06:48;102904.28;;;2.72;70.66
76434;BME280;65265;53.200;6.080;2023-02-26T18:11:40;102901.16;;;2.66;71.23
76434;BME280;65265;53.200;6.080;2023-02-26T18:16:35;102901.25;;;2.59;71.19
76434;BME280;65265;53.200;6.080;2023-02-26T18:21:27;102912.00;;;2.65;71.60
76434;BME280;65265;53.200;6.080;2023-02-26T18:26:19;102912.31;;;2.68;71.94
76434;BME280;65265;53.200;6.080;2023-02-26T18:31:12;102917.94;;;2.65;71.96
76434;BME280;65265;53.200;6.080;2023-02-26T18:36:06;102902.41;;;2.54;71.29
76434;BME280;65265;53.200;6.080;2023-02-26T18:40:58;102907.03;;;2.58;71.09
76434;BME280;65265;53.200;6.080;2023-02-26T18:45:51;102914.13;;;2.53;71.51
76434;BME280;65265;53.200;6.080;2023-02-26T18:50:44;102914.50;;;2.41;73.04
76434;BME280;65265;53.200;6.080;2023-02-26T18:55:37;102912.63;;;2.31;73.54
76434;BME280;65265;53.200;6.080;2023-02-26T19:00:29;102903.06;;;2.21;74.96
76434;BME280;65265;53.200;6.080;2023-02-26T19:05:22;102900.53;;;2.21;75.76
76434;BME280;65265;53.200;6.080;2023-02-26T19:10:17;102905.75;;;2.22;76.66
76434;BME280;65265;53.200;6.080;2023-02-26T19:15:12;102917.63;;;2.23;76.93
76434;BME280;65265;53.200;6.080;2023-02-26T19:20:05;102920.22;;;2.16;77.45
76434;BME280;65265;53.200;6.080;2023-02-26T19:24:56;102926.44;;;2.11;77.73
76434;BME280;65265;53.200;6.080;2023-02-26T19:29:48;102924.41;;;2.16;76.84
76434;BME280;65265;53.200;6.080;2023-02-26T19:34:41;102922.06;;;2.17;77.59
76434;BME280;65265;53.200;6.080;2023-02-26T19:39:32;102932.78;;;2.23;78.20
76434;BME280;65265;53.200;6.080;2023-02-26T19:44:24;102930.25;;;2.23;77.74
76434;BME280;65265;53.200;6.080;2023-02-26T19:49:17;102931.56;;;2.20;78.40
76434;BME280;65265;53.200;6.080;2023-02-26T19:54:10;102930.25;;;2.23;79.04
76434;BME280;65265;53.200;6.080;2023-02-26T19:59:03;102931.38;;;2.33;78.76
76434;BME280;65265;53.200;6.080;2023-02-26T20:03:54;102936.59;;;2.35;78.44
76434;BME280;65265;53.200;6.080;2023-02-26T20:08:46;102947.09;;;2.31;78.55
76434;BME280;65265;53.200;6.080;2023-02-26T20:13:39;102950.38;;;2.30;78.32
76434;BME280;65265;53.200;6.080;2023-02-26T20:18:32;102958.00;;;2.23;78.50
76434;BME280;65265;53.200;6.080;2023-02-26T20:23:24;102963.56;;;2.12;78.72
76434;BME280;65265;53.200;6.080;2023-02-26T20:28:15;102966.56;;;2.01;78.84
76434;BME280;65265;53.200;6.080;2023-02-26T20:33:08;102966.31;;;1.91;79.54
76434;BME280;65265;53.200;6.080;2023-02-26T20:38:00;102971.59;;;1.86;79.74
76434;BME280;65265;53.200;6.080;2023-02-26T20:42:52;102971.91;;;1.89;79.58
76434;BME280;65265;53.200;6.080;2023-02-26T20:47:43;102976.28;;;1.67;79.33
76434;BME280;65265;53.200;6.080;2023-02-26T20:52:36;102975.72;;;1.54;80.07
76434;BME280;65265;53.200;6.080;2023-02-26T20:57:27;102982.22;;;1.52;80.82
76434;BME280;65265;53.200;6.080;2023-02-26T21:02:21;102981.63;;;1.55;81.18
76434;BME280;65265;53.200;6.080;2023-02-26T21:07:13;102986.66;;;1.77;82.19
76434;BME280;65265;53.200;6.080;2023-02-26T21:12:09;102993.91;;;1.90;81.64
76434;BME280;65265;53.200;6.080;2023-02-26T21:17:01;102993.44;;;2.01;81.18
76434;BME280;65265;53.200;6.080;2023-02-26T21:21:53;103006.44;;;1.97;81.09
76434;BME280;65265;53.200;6.080;2023-02-26T21:26:44;103002.69;;;1.93;79.36
76434;BME280;65265;53.200;6.080;2023-02-26T21:31:37;102988.03;;;1.82;79.93
76434;BME280;65265;53.200;6.080;2023-02-26T21:36:29;103005.34;;;1.79;80.45
76434;BME280;65265;53.200;6.080;2023-02-26T21:41:21;103010.31;;;1.71;80.04
76434;BME280;65265;53.200;6.080;2023-02-26T21:46:12;103008.81;;;1.57;80.14
76434;BME280;65265;53.200;6.080;2023-02-26T21:51:05;103010.41;;;1.41;80.03
76434;BME280;65265;53.200;6.080;2023-02-26T21:55:57;103008.38;;;1.23;80.26
76434;BME280;65265;53.200;6.080;2023-02-26T22:00:49;103012.44;;;1.07;80.53
76434;BME280;65265;53.200;6.080;2023-02-26T22:05:40;103012.88;;;0.96;80.77
76434;BME280;65265;53.200;6.080;2023-02-26T22:10:33;103017.09;;;0.82;81.48
76434;BME280;65265;53.200;6.080;2023-02-26T22:15:25;103014.47;;;0.73;82.36
76434;BME280;65265;53.200;6.080;2023-02-26T22:20:17;103015.41;;;0.67;82.71
76434;BME280;65265;53.200;6.080;2023-02-26T22:25:09;103011.44;;;0.62;82.55
76434;BME280;65265;53.200;6.080;2023-02-26T22:30:04;103018.69;;;0.52;82.83
76434;BME280;65265;53.200;6.080;2023-02-26T22:34:56;103018.53;;;0.43;82.51
76434;BME280;65265;53.200;6.080;2023-02-26T22:39:48;103025.78;;;0.33;82.73
76434;BME280;65265;53.200;6.080;2023-02-26T22:44:39;103022.72;;;0.29;82.61
76434;BME280;65265;53.200;6.080;2023-02-26T22:49:33;103027.03;;;0.37;83.39
76434;BME280;65265;53.200;6.080;2023-02-26T22:54:24;103027.03;;;0.37;83.78
76434;BME280;65265;53.200;6.080;2023-02-26T22:59:16;103031.16;;;0.36;83.59
76434;BME280;65265;53.200;6.080;2023-02-26T23:04:07;103042.13;;;0.37;83.68
76434;BME280;65265;53.200;6.080;2023-02-26T23:09:01;103042.81;;;0.43;84.09
76434;BME280;65265;53.200;6.080;2023-02-26T23:13:52;103046.91;;;0.49;84.08
76434;BME280;65265;53.200;6.080;2023-02-26T23:18:44;103050.13;;;0.55;84.44
76434;BME280;65265;53.200;6.080;2023-02-26T23:23:37;103048.88;;;0.59;84.09
76434;BME280;65265;53.200;6.080;2023-02-26T23:28:30;103050.47;;;0.58;83.68
76434;BME280;65265;53.200;6.080;2023-02-26T23:33:21;103047.06;;;0.58;84.05
76434;BME280;65265;53.200;6.080;2023-02-26T23:38:13;103047.22;;;0.59;83.80
76434;BME280;65265;53.200;6.080;2023-02-26T23:43:04;103050.47;;;0.65;83.79
76434;BME280;65265;53.200;6.080;2023-02-26T23:47:57;103051.72;;;0.69;83.56
76434;BME280;65265;53.200;6.080;2023-02-26T23:52:48;103045.41;;;0.72;83.59
76434;BME280;65265;53.200;6.080;2023-02-26T23:57:42;103042.16;;;0.73;83.57
